Time;durP1;ratioP1;P1;durP2;ratioP2;P2;SDS_P1;SDS_P2;PMS_P1;PMS_P2;Temp;Humidity;BMP_temperature;BMP_pressure;BME280_temperature;BME280_humidity;BME280_pressure;Samples;Min_cycle;Max_cycle;Signal;HPM_P1;HPM_P2
2020/12/29 00:01:49;;;;;;;2.67;1.67;;;;;;;7.23;57.95;92401.22;5055742;28;20020;-46
2020/12/29 00:04:17;;;;;;;3.35;1.23;;;;;;;7.19;58.53;92400.84;5067650;28;20082;-46
2020/12/29 00:06:45;;;;;;;1.95;1.27;;;;;;;7.17;59.08;92414.38;5060276;28;20035;-45
2020/12/29 00:09:11;;;;;;;2.03;1.70;;;;;;;7.21;58.83;92411.28;5059835;28;20025;-45
2020/12/29 00:11:37;;;;;;;2.30;1.48;;;;;;;7.17;58.60;92397.19;5059713;28;20141;-47
2020/12/29 00:14:03;;;;;;;3.85;1.50;;;;;;;7.17;58.83;92405.44;5062645;28;20100;-46
2020/12/29 00:16:29;;;;;;;6.20;2.88;;;;;;;7.14;58.98;92410.00;5059234;28;20037;-44
2020/12/29 00:18:54;;;;;;;2.13;1.75;;;;;;;7.08;58.61;92390.25;5063694;28;20033;-46
2020/12/29 00:21:20;;;;;;;5.78;2.42;;;;;;;7.20;59.09;92401.56;5060701;28;20027;-48
2020/12/29 00:23:46;;;;;;;2.65;1.90;;;;;;;7.15;58.86;92416.94;5062176;28;20020;-47
2020/12/29 00:26:13;;;;;;;2.58;1.58;;;;;;;7.22;58.77;92424.44;5060721;28;20024;-47
2020/12/29 00:28:38;;;;;;;1.30;1.20;;;;;;;7.13;58.44;92411.28;5059236;28;20053;-44
2020/12/29 00:31:04;;;;;;;1.33;1.23;;;;;;;7.18;58.85;92437.81;5061789;28;20063;-45
2020/12/29 00:33:29;;;;;;;2.22;1.40;;;;;;;7.16;58.96;92434.91;5058278;28;20028;-47
2020/12/29 00:35:54;;;;;;;1.48;1.15;;;;;;;7.20;58.96;92432.50;5061222;28;20071;-45
2020/12/29 00:38:20;;;;;;;2.45;1.83;;;;;;;7.18;59.14;92440.56;5059414;28;20032;-44
2020/12/29 00:40:45;;;;;;;1.70;1.45;;;;;;;7.10;58.59;92422.63;5059982;28;20029;-46
2020/12/29 00:43:11;;;;;;;3.00;1.17;;;;;;;7.32;58.45;92446.59;5063508;28;20020;-44
2020/12/29 00:45:36;;;;;;;1.95;1.65;;;;;;;7.28;58.77;92449.69;5061508;28;20025;-44
2020/12/29 00:48:01;;;;;;;2.03;1.48;;;;;;;7.21;58.99;92453.16;5061645;28;20543;-45
2020/12/29 00:50:27;;;;;;;1.20;1.10;;;;;;;7.18;59.05;92451.53;5058370;28;20414;-44
2020/12/29 00:52:52;;;;;;;1.45;1.10;;;;;;;7.23;59.20;92456.13;5060877;28;20495;-45
2020/12/29 00:55:18;;;;;;;2.72;1.42;;;;;;;7.26;58.78;92451.53;5059326;28;20025;-44
2020/12/29 00:57:43;;;;;;;2.33;1.30;;;;;;;7.18;59.61;92454.28;5061712;28;20020;-46
2020/12/29 01:00:09;;;;;;;1.58;1.40;;;;;;;7.28;59.01;92457.94;5060426;28;20091;-44
2020/12/29 01:02:34;;;;;;;2.88;1.45;;;;;;;7.31;59.21;92456.84;5058240;28;20024;-45
2020/12/29 01:05:00;;;;;;;3.38;1.40;;;;;;;7.24;59.30;92446.59;5061396;28;20013;-45
2020/12/29 01:07:25;;;;;;;1.40;0.90;;;;;;;7.28;59.42;92466.16;5062528;28;20021;-44
2020/12/29 01:09:50;;;;;;;2.10;0.98;;;;;;;7.17;59.75;92469.28;5061398;28;20027;-44
2020/12/29 01:12:16;;;;;;;5.32;1.30;;;;;;;6.97;59.95;92442.03;5059150;28;20024;-44
2020/12/29 01:14:42;;;;;;;1.10;1.00;;;;;;;7.12;59.90;92442.78;5058533;28;20045;-45
2020/12/29 01:17:08;;;;;;;2.00;1.23;;;;;;;7.07;60.23;92454.66;5059733;28;20454;-43
2020/12/29 01:19:33;;;;;;;2.95;1.10;;;;;;;7.09;60.21;92446.59;5060399;28;20474;-45
2020/12/29 01:21:59;;;;;;;1.48;1.02;;;;;;;7.09;60.29;92452.09;5061256;28;20025;-45
2020/12/29 01:24:24;;;;;;;0.90;0.80;;;;;;;7.08;60.48;92436.19;5057964;28;20013;-43
2020/12/29 01:26:49;;;;;;;2.25;1.00;;;;;;;7.13;60.33;92419.50;5060421;28;20020;-43
2020/12/29 01:29:15;;;;;;;1.63;0.93;;;;;;;7.12;60.34;92428.31;5057045;28;20680;-46
2020/12/29 01:31:40;;;;;;;2.10;1.00;;;;;;;7.08;60.44;92419.72;5056340;28;20496;-46
2020/12/29 01:34:06;;;;;;;3.30;1.00;;;;;;;7.07;60.72;92413.50;5060616;28;20020;-44
2020/12/29 01:36:31;;;;;;;2.90;0.98;;;;;;;7.01;60.96;92423.19;5057304;28;20829;-47
2020/12/29 01:38:57;;;;;;;1.08;1.02;;;;;;;7.05;60.75;92396.84;5059961;28;20021;-45
2020/12/29 01:41:23;;;;;;;1.08;0.82;;;;;;;6.96;61.27;92399.41;5060420;28;20077;-45
2020/12/29 01:43:49;;;;;;;1.27;1.10;;;;;;;6.93;61.09;92384.78;5059423;28;20043;-43
2020/12/29 01:46:15;;;;;;;3.58;1.30;;;;;;;6.93;61.29;92387.50;5058699;28;20439;-45
2020/12/29 01:48:41;;;;;;;2.33;0.95;;;;;;;6.96;61.25;92394.66;5057466;28;20021;-43
2020/12/29 01:51:07;;;;;;;1.77;1.20;;;;;;;6.85;61.45;92401.25;5059828;28;20095;-43
2020/12/29 01:53:33;;;;;;;1.77;1.30;;;;;;;6.92;61.66;92388.06;5057265;28;20074;-44
2020/12/29 01:56:01;;;;;;;3.00;1.35;;;;;;;6.97;61.29;92407.09;5052162;28;20067;-44
2020/12/29 01:58:26;;;;;;;1.27;1.17;;;;;;;6.98;61.27;92424.28;5062454;28;20032;-44
2020/12/29 02:00:53;;;;;;;1.33;0.95;;;;;;;6.91;61.44;92430.53;5057879;28;20029;-46
2020/12/29 02:03:18;;;;;;;2.35;1.00;;;;;;;6.87;62.05;92425.38;5058262;28;20036;-45
2020/12/29 02:05:47;;;;;;;1.70;1.42;;;;;;;6.85;61.84;92414.25;5064921;28;20508;-45
2020/12/29 02:08:17;;;;;;;2.22;1.55;;;;;;;6.92;61.91;92423.75;5071483;28;20534;-43
2020/12/29 02:10:43;;;;;;;2.05;0.80;;;;;;;6.82;62.02;92434.56;5071136;28;20040;-46
2020/12/29 02:13:09;;;;;;;1.55;1.17;;;;;;;6.95;61.96;92444.59;5070076;28;20163;-44
2020/12/29 02:15:34;;;;;;;1.55;0.88;;;;;;;6.98;62.01;92435.25;5071166;28;20127;-45
2020/12/29 02:17:59;;;;;;;1.50;1.13;;;;;;;7.03;61.77;92448.81;5071290;28;20031;-44
2020/12/29 02:20:25;;;;;;;1.83;1.25;;;;;;;7.01;62.00;92453.38;5071387;28;20025;-43
2020/12/29 02:22:50;;;;;;;1.17;0.90;;;;;;;6.96;62.36;92446.06;5071339;28;20035;-45
2020/12/29 02:25:16;;;;;;;2.40;0.82;;;;;;;6.89;62.45;92447.53;5071188;28;20483;-44
2020/12/29 02:27:49;;;;;;;1.40;0.63;;;;;;;6.96;62.18;92446.78;5071306;28;20029;-44
2020/12/29 02:30:19;;;;;;;1.98;1.38;;;;;;;6.86;62.61;92443.84;5068070;28;20047;-44
2020/12/29 02:32:44;;;;;;;;;;;;;;;6.94;62.49;92438.38;5071390;28;20082;-44
2020/12/29 02:35:11;;;;;;;1.20;1.02;;;;;;;6.91;62.65;92431.25;5071074;28;20381;-44
2020/12/29 02:37:37;;;;;;;1.02;0.80;;;;;;;7.06;62.17;92441.50;5071157;28;20074;-43
2020/12/29 02:40:04;;;;;;;2.88;1.40;;;;;;;6.97;62.34;92450.28;5070914;28;20060;-43
2020/12/29 02:42:29;;;;;;;1.95;0.77;;;;;;;6.87;62.86;92458.31;5071121;28;20493;-44
2020/12/29 02:44:55;;;;;;;2.95;2.08;;;;;;;6.91;62.93;92453.19;5070907;28;20086;-44
2020/12/29 02:47:20;;;;;;;2.50;1.17;;;;;;;7.03;62.25;92446.06;5071102;28;20028;-44
2020/12/29 02:49:46;;;;;;;2.15;1.08;;;;;;;7.00;62.42;92449.91;5071057;28;20031;-44
2020/12/29 02:52:11;;;;;;;1.40;0.77;;;;;;;7.05;62.36;92451.00;5070917;28;20515;-43
2020/12/29 02:54:37;;;;;;;2.40;1.40;;;;;;;6.91;62.55;92464.16;5070990;28;20504;-45
2020/12/29 02:57:02;;;;;;;1.58;0.80;;;;;;;6.89;62.55;92461.25;5070847;28;20024;-42
2020/12/29 02:59:28;;;;;;;2.88;1.05;;;;;;;7.05;62.21;92472.94;5070956;28;20024;-46
2020/12/29 03:01:53;;;;;;;1.45;0.95;;;;;;;7.03;62.44;92470.03;5070757;28;20108;-45
2020/12/29 03:04:19;;;;;;;1.40;0.85;;;;;;;7.04;62.49;92471.50;5070912;28;20016;-43
2020/12/29 03:06:45;;;;;;;1.40;0.95;;;;;;;7.05;62.52;92468.19;5070934;28;20056;-44
2020/12/29 03:09:11;;;;;;;1.83;1.10;;;;;;;7.06;62.22;92457.97;5070800;28;20059;-42
2020/12/29 03:11:37;;;;;;;1.30;0.80;;;;;;;7.01;62.30;92467.09;5070901;28;20029;-43
2020/12/29 03:14:05;;;;;;;1.17;0.85;;;;;;;6.99;62.41;92470.41;5074100;28;20156;-43
2020/12/29 03:16:30;;;;;;;1.02;0.70;;;;;;;6.91;63.07;92468.94;5072945;28;20554;-43
2020/12/29 03:18:56;;;;;;;0.77;0.77;;;;;;;6.85;62.97;92474.59;5074291;28;20115;-43
2020/12/29 03:21:22;;;;;;;1.20;0.82;;;;;;;6.87;62.96;92472.78;5074365;28;20112;-42
2020/12/29 03:23:48;;;;;;;1.60;0.70;;;;;;;6.97;62.64;92453.75;5074217;28;20028;-44
2020/12/29 03:26:14;;;;;;;0.63;0.63;;;;;;;6.91;62.93;92466.91;5074104;28;20032;-45
2020/12/29 03:28:39;;;;;;;4.05;1.70;;;;;;;6.81;63.38;92466.00;5074187;28;20025;-43
2020/12/29 03:31:05;;;;;;;1.90;1.40;;;;;;;6.80;63.98;92475.50;5074116;28;20032;-43
2020/12/29 03:33:31;;;;;;;2.55;1.17;;;;;;;6.75;63.53;92459.97;5073966;28;20044;-43
2020/12/29 03:35:57;;;;;;;1.30;0.93;;;;;;;6.65;62.78;92443.31;5074283;28;20044;-47
2020/12/29 03:38:23;;;;;;;2.15;0.90;;;;;;;6.88;62.95;92477.00;5073873;28;20493;-45
2020/12/29 03:40:49;;;;;;;2.95;1.30;;;;;;;6.93;62.78;92497.28;5073814;28;20021;-44
2020/12/29 03:43:15;;;;;;;1.25;1.02;;;;;;;6.78;63.51;92503.50;5073886;28;20025;-45
2020/12/29 03:45:49;;;;;;;3.45;1.60;;;;;;;6.69;64.41;92504.03;5073818;28;20031;-45
2020/12/29 03:48:20;;;;;;;2.45;1.30;;;;;;;6.67;64.14;92505.88;5073960;28;20023;-45
2020/12/29 03:50:46;;;;;;;1.00;0.90;;;;;;;6.82;63.43;92516.84;5073504;28;20025;-46
2020/12/29 03:53:12;;;;;;;0.93;0.70;;;;;;;6.87;63.12;92511.19;5073733;28;20020;-47
2020/12/29 03:55:37;;;;;;;1.20;0.80;;;;;;;6.90;63.09;92495.63;5073674;28;20023;-45
2020/12/29 03:58:06;;;;;;;1.30;1.08;;;;;;;6.91;63.11;92508.06;5073581;28;20032;-45
2020/12/29 04:00:32;;;;;;;1.75;0.85;;;;;;;6.86;63.35;92517.22;5073578;28;20055;-45
2020/12/29 04:02:57;;;;;;;1.75;0.80;;;;;;;6.70;63.31;92496.53;5073413;28;20066;-47
2020/12/29 04:05:23;;;;;;;1.60;0.90;;;;;;;6.93;63.21;92518.50;5073379;28;20798;-46
2020/12/29 04:07:49;;;;;;;0.75;0.75;;;;;;;6.93;63.09;92521.97;5073581;28;20056;-45
2020/12/29 04:10:15;;;;;;;1.45;1.05;;;;;;;6.97;62.84;92521.63;5073427;28;20028;-45
2020/12/29 04:12:40;;;;;;;2.65;1.00;;;;;;;6.96;63.25;92503.69;5073270;28;20025;-45
2020/12/29 04:15:06;;;;;;;1.70;1.08;;;;;;;6.87;62.92;92493.97;5073157;28;20044;-45
2020/12/29 04:17:33;;;;;;;1.73;1.42;;;;;;;6.91;63.15;92504.63;5073157;28;20028;-46
2020/12/29 04:19:59;;;;;;;0.90;0.90;;;;;;;6.80;63.47;92505.69;5073172;28;20025;-46
2020/12/29 04:22:24;;;;;;;6.75;1.30;;;;;;;6.68;63.92;92499.81;5072988;28;20481;-46
2020/12/29 04:24:49;;;;;;;1.98;1.30;;;;;;;6.85;63.53;92519.22;5073043;28;20183;-43
2020/12/29 04:27:15;;;;;;;1.27;1.10;;;;;;;6.73;63.53;92517.38;5072760;28;20032;-45
2020/12/29 04:29:40;;;;;;;1.30;1.20;;;;;;;6.63;64.26;92505.47;5069105;28;20021;-46
2020/12/29 04:32:06;;;;;;;0.80;0.80;;;;;;;6.66;64.04;92507.88;5072813;28;20016;-44
2020/12/29 04:34:31;;;;;;;6.60;1.40;;;;;;;6.77;63.65;92513.00;5072546;28;20120;-45
2020/12/29 04:36:56;;;;;;;3.58;1.30;;;;;;;6.75;63.77;92523.06;5072824;28;20024;-47
2020/12/29 04:39:22;;;;;;;2.40;0.90;;;;;;;6.68;64.18;92527.25;5072783;28;20016;-44
2020/12/29 04:41:52;;;;;;;0.93;0.80;;;;;;;6.62;64.59;92536.94;5072649;28;20020;-44
2020/12/29 04:44:20;;;;;;;1.77;1.08;;;;;;;6.80;63.81;92535.84;5072675;28;20085;-44
2020/12/29 04:46:46;;;;;;;2.28;1.45;;;;;;;6.68;64.15;92532.75;5071446;28;20020;-47
2020/12/29 04:49:11;;;;;;;2.35;1.20;;;;;;;6.81;63.72;92526.34;5071588;28;20020;-48
2020/12/29 04:51:38;;;;;;;1.80;1.10;;;;;;;6.64;64.31;92539.84;5072671;28;20432;-47
2020/12/29 04:54:06;;;;;;;1.05;0.85;;;;;;;6.44;65.23;92540.72;5072655;28;20031;-46
2020/12/29 04:56:32;;;;;;;2.40;1.00;;;;;;;6.53;64.41;92521.00;5072467;28;20048;-48
2020/12/29 04:59:02;;;;;;;1.52;0.88;;;;;;;6.53;64.76;92534.72;5072528;28;20044;-44
2020/12/29 05:01:32;;;;;;;3.88;0.90;;;;;;;6.49;65.35;92526.09;5071023;28;20024;-43
2020/12/29 05:03:57;;;;;;;1.10;1.00;;;;;;;6.47;64.97;92534.16;5072272;28;20051;-42
2020/12/29 05:06:24;;;;;;;2.20;1.25;;;;;;;6.45;64.94;92521.00;5072307;28;20059;-43
2020/12/29 05:08:51;;;;;;;2.83;0.93;;;;;;;6.55;64.53;92527.41;5072275;28;20108;-43
2020/12/29 05:11:18;;;;;;;1.00;0.90;;;;;;;6.47;65.09;92531.41;5072158;28;20511;-44
2020/12/29 05:13:45;;;;;;;1.60;1.10;;;;;;;6.43;65.15;92525.56;5072201;28;20036;-43
2020/12/29 05:16:11;;;;;;;1.55;1.20;;;;;;;6.44;65.07;92521.50;5071974;28;20500;-42
2020/12/29 05:18:37;;;;;;;4.45;1.88;;;;;;;6.44;65.35;92527.00;5072194;28;20027;-42
2020/12/29 05:21:03;;;;;;;2.40;1.33;;;;;;;6.49;64.93;92531.59;5071939;28;20538;-43
2020/12/29 05:23:29;;;;;;;2.05;1.10;;;;;;;6.53;64.87;92534.72;5071981;28;20016;-42
2020/12/29 05:25:54;;;;;;;1.30;1.02;;;;;;;6.48;64.67;92528.13;5071719;28;20412;-43
2020/12/29 05:28:20;;;;;;;4.00;1.60;;;;;;;6.47;64.88;92521.19;5071957;28;20021;-42
2020/12/29 05:30:55;;;;;;;1.30;1.05;;;;;;;6.56;64.27;92539.13;5071844;28;20166;-43
2020/12/29 05:33:21;;;;;;;2.40;1.27;;;;;;;6.57;64.12;92543.31;5071839;28;20027;-43
2020/12/29 05:35:46;;;;;;;2.85;1.60;;;;;;;6.52;64.73;92560.69;5071447;28;20103;-43
2020/12/29 05:38:12;;;;;;;55.00;21.60;;;;;;;6.46;65.01;92551.88;5071872;28;20048;-46
2020/12/29 05:40:38;;;;;;;5.60;3.03;;;;;;;6.59;64.23;92546.22;5071774;28;20027;-42
2020/12/29 05:43:04;;;;;;;3.05;1.42;;;;;;;6.55;64.29;92554.09;5071667;28;20068;-43
2020/12/29 05:45:36;;;;;;;2.35;1.30;;;;;;;6.56;64.35;92545.31;5071587;28;20020;-45
2020/12/29 05:48:03;;;;;;;0.80;0.80;;;;;;;6.60;64.48;92559.44;5071755;28;20125;-43
2020/12/29 05:50:30;;;;;;;1.20;1.08;;;;;;;6.73;64.09;92547.56;5071511;28;20037;-42
2020/12/29 05:53:01;;;;;;;2.47;0.80;;;;;;;6.64;64.26;92559.06;5071563;28;20025;-46
2020/12/29 05:55:26;;;;;;;0.98;0.63;;;;;;;6.62;64.34;92543.16;5071746;28;20032;-46
2020/12/29 05:58:08;;;;;;;2.05;1.00;;;;;;;6.70;63.98;92548.66;5071503;28;20035;-49
2020/12/29 06:00:35;;;;;;;3.28;1.27;;;;;;;6.79;63.50;92559.09;5071475;28;20028;-49
2020/12/29 06:03:02;;;;;;;2.95;1.05;;;;;;;6.75;63.67;92553.97;5071520;28;20028;-48
2020/12/29 06:05:29;;;;;;;4.18;1.40;;;;;;;6.72;63.84;92562.53;5071637;28;20078;-48
2020/12/29 06:07:56;;;;;;;2.00;1.30;;;;;;;6.68;64.32;92570.41;5071398;28;20025;-47
2020/12/29 06:10:23;;;;;;;1.65;0.93;;;;;;;6.60;64.37;92572.41;5071290;28;20066;-50
2020/12/29 06:12:56;;;;;;;2.92;1.00;;;;;;;6.73;64.02;92588.72;5071551;28;20020;-49
2020/12/29 06:15:28;;;;;;;2.53;1.23;;;;;;;6.69;63.98;92591.78;5071087;28;20095;-49
2020/12/29 06:18:12;;;;;;;5.07;1.35;;;;;;;6.64;64.19;92589.22;5071431;28;20450;-49
2020/12/29 06:20:45;;;;;;;4.57;1.50;;;;;;;6.66;64.28;92583.94;5070151;28;20043;-48
2020/12/29 06:23:13;;;;;;;0.85;0.82;;;;;;;6.64;64.39;92587.22;5071430;28;20024;-48
2020/12/29 06:25:38;;;;;;;2.73;0.93;;;;;;;6.58;64.60;92583.19;5070103;28;20031;-51
2020/12/29 06:28:05;;;;;;;3.40;2.00;;;;;;;6.59;64.88;92592.84;5057256;28;20037;-49
2020/12/29 06:30:33;;;;;;;6.03;3.83;;;;;;;6.70;64.55;92595.28;5051218;28;20033;-48
2020/12/29 06:32:59;;;;;;;16.73;6.75;;;;;;;6.39;65.44;92605.41;5051222;28;20029;-51
2020/12/29 06:35:25;;;;;;;7.85;5.10;;;;;;;6.49;65.14;92600.88;5063919;28;20074;-44
2020/12/29 06:38:15;;;;;;;12.27;6.43;;;;;;;6.47;65.77;92608.19;5071123;28;20021;-44
2020/12/29 06:40:42;;;;;;;9.10;4.82;;;;;;;6.43;65.79;92613.28;5069917;28;20420;-44
2020/12/29 06:43:08;;;;;;;10.55;4.05;;;;;;;6.38;66.17;92608.69;5071014;28;20032;-45
2020/12/29 06:45:36;;;;;;;6.70;3.47;;;;;;;6.49;65.72;92619.34;5070975;28;20436;-45
2020/12/29 06:48:23;;;;;;;7.28;4.15;;;;;;;6.41;66.08;92616.56;5072946;28;20514;-46
2020/12/29 06:50:48;;;;;;;10.77;5.32;;;;;;;6.43;66.15;92618.78;5074600;28;20404;-46
2020/12/29 06:53:16;;;;;;;15.77;7.95;;;;;;;6.38;66.38;92630.63;5074877;28;20086;-46
2020/12/29 06:55:47;;;;;;;9.20;5.15;;;;;;;6.49;66.07;92628.31;5074969;28;20017;-46
2020/12/29 06:58:32;;;;;;;14.13;6.82;;;;;;;6.55;65.83;92641.84;5074636;28;20020;-46
2020/12/29 07:01:26;;;;;;;20.95;11.57;;;;;;;6.59;65.74;92640.22;5074451;28;20051;-46
2020/12/29 07:04:05;;;;;;;15.57;7.38;;;;;;;6.59;65.77;92634.00;5074648;28;20457;-47
2020/12/29 07:06:32;;;;;;;15.48;8.05;;;;;;;6.74;65.81;92642.28;5074568;28;20024;-46
2020/12/29 07:09:26;;;;;;;11.70;6.43;;;;;;;6.67;65.77;92648.50;5074485;28;20021;-47
2020/12/29 07:12:10;;;;;;;8.25;4.10;;;;;;;6.70;66.38;92658.38;5066214;28;20054;-46
2020/12/29 07:14:36;;;;;;;7.97;4.22;;;;;;;6.76;65.59;92656.19;5074357;28;20115;-52
2020/12/29 07:17:05;;;;;;;6.53;4.50;;;;;;;6.86;65.90;92662.63;5074441;28;20046;-50
2020/12/29 07:19:31;;;;;;;9.98;5.38;;;;;;;7.06;65.24;92670.00;5074266;28;20029;-50
2020/12/29 07:21:57;;;;;;;8.45;4.47;;;;;;;7.24;64.49;92688.19;5074209;28;20041;-46
2020/12/29 07:24:27;;;;;;;13.45;6.03;;;;;;;7.57;63.26;92680.91;5074201;28;20060;-46
2020/12/29 07:26:56;;;;;;;16.60;7.30;;;;;;;7.98;62.48;92679.81;5074221;28;20024;-46
2020/12/29 07:29:21;;;;;;;16.08;8.48;;;;;;;8.65;60.87;92681.78;5074098;28;20082;-47
2020/12/29 07:31:47;;;;;;;27.88;12.90;;;;;;;9.42;57.92;92674.66;5073896;28;20020;-48
2020/12/29 07:34:13;;;;;;;12.93;6.22;;;;;;;9.29;56.91;92683.19;5064211;28;20066;-49
2020/12/29 07:36:46;;;;;;;15.52;7.05;;;;;;;9.34;56.90;92673.94;5063858;28;20017;-45
2020/12/29 07:39:14;;;;;;;85.50;38.10;;;;;;;9.57;57.20;92685.59;5064516;28;20503;-47
2020/12/29 07:41:39;;;;;;;347.00;123.88;;;;;;;10.02;56.53;92685.28;5053874;28;20029;-45
2020/12/29 07:44:05;;;;;;;256.73;101.72;;;;;;;10.15;55.15;92665.69;5053133;28;20078;-43
2020/12/29 07:46:31;;;;;;;29.60;16.95;;;;;;;10.24;53.79;92687.16;5052652;28;20079;-44
2020/12/29 07:48:56;;;;;;;4.15;2.70;;;;;;;10.25;53.52;92679.56;5052371;28;20021;-44
2020/12/29 07:51:22;;;;;;;2.40;0.90;;;;;;;10.51;51.85;92676.94;5052521;28;20035;-44
2020/12/29 07:53:47;;;;;;;7.50;4.10;;;;;;;10.41;52.91;92675.41;5052567;28;20017;-44
2020/12/29 07:56:13;;;;;;;1.17;0.77;;;;;;;11.09;50.70;92680.19;5052341;28;20017;-44
2020/12/29 07:58:38;;;;;;;3.13;0.70;;;;;;;11.75;48.60;92685.44;5052001;28;20029;-46
2020/12/29 08:01:03;;;;;;;7.53;5.55;;;;;;;12.46;47.88;92685.25;5067726;28;20040;-44
2020/12/29 08:03:29;;;;;;;6.85;4.50;;;;;;;13.60;43.84;92690.09;5052482;28;20027;-45
2020/12/29 08:05:54;;;;;;;2.55;1.40;;;;;;;14.38;43.57;92692.06;5052108;28;20127;-44
2020/12/29 08:08:20;;;;;;;1.23;0.85;;;;;;;14.83;40.38;92679.84;5052121;28;20398;-49
2020/12/29 08:10:46;;;;;;;0.90;0.77;;;;;;;14.96;40.05;92700.81;5052220;28;20490;-50
2020/12/29 08:13:12;;;;;;;1.27;0.60;;;;;;;14.69;39.77;92676.13;5051971;28;20029;-46
2020/12/29 08:15:40;;;;;;;2.17;0.57;;;;;;;14.51;40.18;92705.44;5050604;28;20461;-53
2020/12/29 08:18:10;;;;;;;1.23;0.50;;;;;;;14.17;41.17;92700.31;5072131;28;20577;-46
2020/12/29 08:20:55;;;;;;;1.17;0.43;;;;;;;14.60;41.04;92715.06;5068292;28;20035;-51
2020/12/29 08:23:22;;;;;;;0.60;0.60;;;;;;;15.05;40.04;92705.59;5062581;28;20104;-48
2020/12/29 08:25:52;;;;;;;2.45;0.70;;;;;;;15.05;38.96;92697.97;5062717;28;20029;-48
2020/12/29 08:28:19;;;;;;;2.60;0.80;;;;;;;15.03;39.28;92708.94;5061729;28;20509;-48
2020/12/29 08:30:45;;;;;;;2.13;1.20;;;;;;;15.79;38.82;92718.75;5060324;28;20049;-47
2020/12/29 08:33:13;;;;;;;2.60;0.93;;;;;;;16.62;36.01;92718.28;5065785;28;20086;-49
2020/12/29 08:35:45;;;;;;;2.65;1.58;;;;;;;16.95;35.21;92718.16;5070641;28;20412;-48
2020/12/29 08:38:32;;;;;;;1.58;0.93;;;;;;;16.82;35.06;92721.56;5071228;28;20070;-48
2020/12/29 08:41:04;;;;;;;2.63;1.10;;;;;;;17.16;34.71;92724.31;5071194;28;20104;-48
2020/12/29 08:43:30;;;;;;;1.92;0.82;;;;;;;16.84;35.64;92728.00;5071577;28;20631;-50
2020/12/29 08:46:03;;;;;;;1.83;1.02;;;;;;;17.18;34.82;92723.69;5071509;28;20027;-50
2020/12/29 08:48:29;;;;;;;1.92;0.90;;;;;;;17.27;34.19;92729.13;5068516;28;20493;-48
2020/12/29 08:50:54;;;;;;;0.52;0.50;;;;;;;17.65;33.66;92743.88;5062094;28;20032;-47
2020/12/29 08:53:23;;;;;;;2.22;0.98;;;;;;;18.00;32.34;92728.41;5061865;28;20031;-51
2020/12/29 08:55:49;;;;;;;1.35;0.80;;;;;;;18.30;32.07;92737.00;5054250;28;20037;-52
2020/12/29 08:58:14;;;;;;;1.70;0.60;;;;;;;18.57;31.72;92725.91;5053030;28;20032;-47
2020/12/29 09:00:45;;;;;;;1.40;0.80;;;;;;;18.71;31.75;92746.94;5063075;28;20023;-48
2020/12/29 09:03:23;;;;;;;2.00;1.10;;;;;;;18.75;30.81;92747.16;5070180;28;20485;-46
2020/12/29 09:05:52;;;;;;;;;;;;;;;18.55;31.26;92753.75;5064218;28;20036;-48
2020/12/29 09:08:28;;;;;;;1.20;0.82;;;;;;;17.61;32.48;92760.38;5050437;28;19913;-49
2020/12/29 09:11:13;;;;;;;0.98;0.75;;;;;;;16.86;34.03;92758.03;5056366;28;20031;-49
2020/12/29 09:14:02;;;;;;;0.80;0.55;;;;;;;16.76;35.00;92765.81;5052634;28;20513;-48
2020/12/29 09:16:28;;;;;;;1.20;0.60;;;;;;;17.06;33.95;92759.97;5048904;28;20454;-48
2020/12/29 09:18:53;;;;;;;0.52;0.52;;;;;;;16.91;33.63;92762.53;5051541;28;20094;-48
2020/12/29 09:21:19;;;;;;;1.65;0.95;;;;;;;16.55;34.80;92767.38;5061251;28;20031;-47
2020/12/29 09:23:44;;;;;;;0.68;0.40;;;;;;;16.36;35.33;92753.63;5066492;28;20058;-50
2020/12/29 09:26:10;;;;;;;0.88;0.60;;;;;;;16.73;35.23;92762.16;5062287;28;20409;-50
2020/12/29 09:28:35;;;;;;;0.40;0.30;;;;;;;17.08;34.29;92767.75;5058312;28;20489;-45
2020/12/29 09:31:10;;;;;;;2.20;0.65;;;;;;;17.12;34.45;92770.75;5061337;28;20028;-46
2020/12/29 09:33:37;;;;;;;1.48;0.85;;;;;;;17.18;34.25;92759.94;5055950;28;20021;-45
2020/12/29 09:36:04;;;;;;;2.83;1.80;;;;;;;17.73;33.38;92759.00;5056988;28;20016;-48
2020/12/29 09:38:33;;;;;;;2.45;0.93;;;;;;;17.83;33.04;92773.53;5055103;28;20038;-48
2020/12/29 09:40:59;;;;;;;;;;;;;;;18.51;32.94;92764.72;5060470;28;20463;-45
2020/12/29 09:43:25;;;;;;;0.57;0.57;;;;;;;18.63;31.30;92770.94;5059530;28;19948;-45
2020/12/29 09:45:50;;;;;;;0.70;0.60;;;;;;;18.68;31.58;92764.97;5051874;28;20111;-46
2020/12/29 09:48:17;;;;;;;2.15;0.73;;;;;;;18.29;31.38;92755.09;5049278;28;20024;-46
2020/12/29 09:50:43;;;;;;;0.93;0.55;;;;;;;18.73;31.18;92757.53;5050623;28;20032;-46
2020/12/29 09:53:08;;;;;;;1.52;0.77;;;;;;;18.78;31.21;92748.72;5060343;28;20027;-46
2020/12/29 09:55:34;;;;;;;1.33;0.63;;;;;;;18.78;31.04;92748.72;5060245;28;20103;-45
2020/12/29 09:57:59;;;;;;;0.50;0.50;;;;;;;18.68;31.31;92748.19;5058489;28;20017;-48
2020/12/29 10:00:25;;;;;;;2.10;1.02;;;;;;;18.75;31.48;92749.25;5070025;28;20025;-48
2020/12/29 10:02:50;;;;;;;4.05;1.95;;;;;;;18.61;31.55;92728.91;5070050;28;20106;-45
2020/12/29 10:05:16;;;;;;;1.70;0.80;;;;;;;18.26;32.75;92742.38;5070015;28;20021;-45
2020/12/29 10:07:45;;;;;;;2.17;1.30;;;;;;;18.33;32.92;92733.69;5070047;28;20017;-45
2020/12/29 10:10:10;;;;;;;1.80;1.30;;;;;;;18.39;31.93;92742.41;5069842;28;20504;-46
2020/12/29 10:12:36;;;;;;;2.00;1.30;;;;;;;18.14;32.79;92753.59;5066702;28;20112;-44
2020/12/29 10:15:01;;;;;;;1.90;0.93;;;;;;;18.31;32.58;92760.78;5048893;28;20033;-47
2020/12/29 10:17:27;;;;;;;0.77;0.75;;;;;;;17.75;33.30;92750.75;5049702;28;20082;-46
2020/12/29 10:19:56;;;;;;;1.13;0.70;;;;;;;17.38;33.55;92750.72;5049760;28;20047;-47
2020/12/29 10:22:21;;;;;;;1.30;0.70;;;;;;;17.48;33.99;92755.44;5052673;28;20025;-46
2020/12/29 10:24:46;;;;;;;1.60;1.30;;;;;;;17.87;33.09;92756.25;5053930;28;20086;-45
2020/12/29 10:27:12;;;;;;;1.35;1.23;;;;;;;17.78;33.47;92748.78;5054003;28;20028;-47
2020/12/29 10:29:37;;;;;;;4.00;0.95;;;;;;;18.08;32.85;92744.91;5053804;28;20086;-47
2020/12/29 10:32:03;;;;;;;4.75;1.88;;;;;;;17.50;33.90;92755.53;5053714;28;20040;-48
2020/12/29 10:34:28;;;;;;;3.50;1.88;;;;;;;17.06;34.29;92754.41;5054154;28;20032;-46
2020/12/29 10:36:54;;;;;;;2.95;1.77;;;;;;;17.12;34.77;92756.81;5053440;28;20090;-44
2020/12/29 10:39:19;;;;;;;2.38;1.38;;;;;;;17.09;34.60;92750.38;5053528;28;20017;-45
2020/12/29 10:41:45;;;;;;;1.67;1.00;;;;;;;16.90;34.97;92749.91;5054780;28;20024;-44
2020/12/29 10:44:10;;;;;;;2.33;1.05;;;;;;;16.59;35.74;92747.38;5054777;28;20071;-45
2020/12/29 10:46:36;;;;;;;0.88;0.70;;;;;;;16.60;36.53;92757.94;5054733;28;20025;-45
2020/12/29 10:49:02;;;;;;;3.25;0.65;;;;;;;16.30;36.66;92744.16;5054647;28;20111;-47
2020/12/29 10:51:28;;;;;;;2.45;1.33;;;;;;;16.22;36.30;92741.59;5054485;28;20151;-46
2020/12/29 10:53:54;;;;;;;2.05;1.25;;;;;;;16.28;36.55;92749.63;5054510;28;20025;-46
2020/12/29 10:56:19;;;;;;;1.85;1.00;;;;;;;16.61;36.00;92745.44;5053269;28;20021;-45
2020/12/29 10:58:45;;;;;;;2.70;1.48;;;;;;;17.00;35.39;92751.25;5053337;28;20032;-47
2020/12/29 11:01:11;;;;;;;2.90;0.85;;;;;;;17.11;35.60;92753.28;5053268;28;20062;-47
2020/12/29 11:03:37;;;;;;;1.55;0.88;;;;;;;17.23;36.14;92744.91;5053640;28;20159;-45
2020/12/29 11:06:03;;;;;;;2.15;1.67;;;;;;;17.40;35.17;92744.50;5053278;28;20183;-46
2020/12/29 11:08:29;;;;;;;6.32;1.08;;;;;;;17.85;34.42;92731.03;5053523;28;20044;-46
2020/12/29 11:10:55;;;;;;;2.13;1.13;;;;;;;17.70;34.14;92734.38;5053264;28;20464;-45
2020/12/29 11:13:20;;;;;;;1.48;1.15;;;;;;;17.23;34.86;92723.31;5053008;28;20466;-45
2020/12/29 11:15:47;;;;;;;2.38;1.48;;;;;;;16.99;35.30;92718.41;5052996;28;20069;-47
2020/12/29 11:18:13;;;;;;;2.90;1.25;;;;;;;16.84;35.95;92719.63;5053044;28;20387;-43
2020/12/29 11:20:39;;;;;;;2.83;1.38;;;;;;;16.74;36.69;92721.78;5063753;28;20031;-46
2020/12/29 11:23:04;;;;;;;1.45;1.10;;;;;;;16.70;36.50;92709.69;5061567;28;20452;-44
2020/12/29 11:25:30;;;;;;;1.20;0.73;;;;;;;16.58;37.32;92706.91;5064014;28;20477;-47
2020/12/29 11:27:55;;;;;;;1.17;0.85;;;;;;;16.43;37.42;92719.25;5061882;28;20021;-46
2020/12/29 11:30:20;;;;;;;1.70;0.77;;;;;;;16.47;36.73;92705.56;5072416;28;20059;-45
2020/12/29 11:32:46;;;;;;;1.88;0.90;;;;;;;16.77;38.09;92708.72;5070879;28;20108;-45
2020/12/29 11:35:11;;;;;;;1.65;0.93;;;;;;;17.23;35.77;92694.69;5073034;28;20024;-46
2020/12/29 11:37:37;;;;;;;5.13;0.70;;;;;;;17.19;35.23;92711.22;5072938;28;20408;-47
2020/12/29 11:40:03;;;;;;;4.75;0.85;;;;;;;16.75;36.42;92714.16;5072626;28;20026;-45